createdAt,value
2022-11-27T00:00:01.906Z,2.50
2022-11-27T00:02:29.039Z,2.47
2022-11-27T00:04:56.162Z,2.20
2022-11-27T00:07:23.301Z,1.92
2022-11-27T00:09:50.296Z,2.10
2022-11-27T00:12:17.312Z,1.58
2022-11-27T00:14:44.279Z,2.17
2022-11-27T00:17:11.267Z,1.92
2022-11-27T00:19:38.594Z,1.80
2022-11-27T00:22:05.776Z,1.88
2022-11-27T00:24:32.774Z,1.80
2022-11-27T00:26:59.724Z,1.85
2022-11-27T00:29:29.174Z,1.90
2022-11-27T00:31:56.634Z,1.95
2022-11-27T00:34:23.590Z,1.80
2022-11-27T00:36:50.558Z,1.52
2022-11-27T00:39:17.836Z,1.80
2022-11-27T00:41:45.366Z,1.67
2022-11-27T00:44:14.286Z,1.42
2022-11-27T00:46:42.255Z,1.48
2022-11-27T00:49:12.431Z,1.52
2022-11-27T00:51:39.677Z,1.50
2022-11-27T00:54:07.423Z,1.67
2022-11-27T00:56:38.627Z,1.98
2022-11-27T00:59:07.101Z,1.80
2022-11-27T01:01:43.372Z,1.65
2022-11-27T01:04:14.291Z,1.90
2022-11-27T01:06:42.117Z,1.38
2022-11-27T01:09:10.403Z,1.63
2022-11-27T01:11:37.684Z,1.52
2022-11-27T01:14:07.984Z,1.60
2022-11-27T01:16:36.421Z,1.40
2022-11-27T01:19:05.792Z,1.40
2022-11-27T01:21:34.515Z,1.88
2022-11-27T01:24:02.982Z,1.35
2022-11-27T01:26:30.288Z,1.30
2022-11-27T01:28:58.758Z,1.80
2022-11-27T01:31:29.648Z,2.08
2022-11-27T01:34:06.411Z,1.58
2022-11-27T01:36:35.242Z,1.48
2022-11-27T01:39:03.496Z,1.50
2022-11-27T01:41:39.982Z,1.27
2022-11-27T01:44:25.099Z,1.52
2022-11-27T01:46:58.448Z,1.48
2022-11-27T01:49:25.470Z,1.55
2022-11-27T01:51:52.358Z,1.88
2022-11-27T01:54:21.909Z,1.30
2022-11-27T01:56:52.364Z,1.17
2022-11-27T01:59:19.577Z,1.50
2022-11-27T02:01:46.589Z,1.25
2022-11-27T02:04:13.794Z,1.50
2022-11-27T02:06:40.824Z,1.63
2022-11-27T02:09:07.794Z,1.48
2022-11-27T02:12:00.778Z,1.20
2022-11-27T02:14:53.533Z,1.30
2022-11-27T02:17:48.788Z,1.15
2022-11-27T02:20:31.070Z,1.02
2022-11-27T02:23:10.276Z,1.08
2022-11-27T02:25:46.177Z,1.10
2022-11-27T02:28:32.997Z,1.40
2022-11-27T02:31:16.733Z,1.08
2022-11-27T02:33:49.018Z,1.30
2022-11-27T02:36:22.922Z,1.30
2022-11-27T02:38:55.624Z,1.17
2022-11-27T02:41:46.911Z,1.17
2022-11-27T02:44:16.897Z,1.52
2022-11-27T02:46:45.592Z,1.20
2022-11-27T02:49:17.873Z,1.25
2022-11-27T02:52:04.855Z,1.45
2022-11-27T02:54:32.889Z,1.20
2022-11-27T02:57:03.730Z,1.38
2022-11-27T02:59:33.534Z,1.08
2022-11-27T03:02:07.732Z,1.50
2022-11-27T03:04:52.122Z,1.52
2022-11-27T03:07:28.108Z,0.80
2022-11-27T03:10:00.848Z,1.33
2022-11-27T03:12:28.126Z,1.00
2022-11-27T03:14:55.308Z,1.48
2022-11-27T03:17:40.005Z,1.27
2022-11-27T03:20:42.260Z,1.20
2022-11-27T03:23:09.286Z,1.40
2022-11-27T03:25:36.283Z,1.10
2022-11-27T03:28:08.587Z,1.00
2022-11-27T03:30:35.662Z,1.25
2022-11-27T03:33:03.203Z,1.17
2022-11-27T03:35:31.377Z,1.02
2022-11-27T03:37:58.491Z,1.10
2022-11-27T03:40:34.304Z,1.05
2022-11-27T03:43:11.415Z,1.25
2022-11-27T03:45:52.795Z,1.35
2022-11-27T03:48:22.748Z,1.13
2022-11-27T03:51:10.862Z,1.17
2022-11-27T03:53:43.441Z,1.00
2022-11-27T03:56:34.203Z,1.30
2022-11-27T03:59:23.539Z,1.00
2022-11-27T04:01:51.008Z,0.98
2022-11-27T04:04:18.175Z,0.90
2022-11-27T04:06:45.375Z,1.00
2022-11-27T04:09:12.336Z,1.30
2022-11-27T04:11:39.369Z,1.20
2022-11-27T04:14:06.771Z,1.48
2022-11-27T04:16:33.865Z,1.00
2022-11-27T04:19:01.058Z,0.90
2022-11-27T04:21:28.025Z,1.10
2022-11-27T04:23:55.216Z,1.20
2022-11-27T04:26:22.346Z,1.10
2022-11-27T04:28:49.293Z,1.33
2022-11-27T04:31:16.413Z,1.05
2022-11-27T04:33:43.382Z,1.25
2022-11-27T04:36:10.601Z,0.90
2022-11-27T04:38:37.915Z,1.10
2022-11-27T04:41:05.075Z,1.10
2022-11-27T04:43:32.072Z,1.05
2022-11-27T04:45:59.034Z,1.00
2022-11-27T04:48:26.051Z,1.02
2022-11-27T04:50:55.388Z,1.05
2022-11-27T04:53:22.667Z,0.80
2022-11-27T04:55:52.376Z,1.20
2022-11-27T04:58:19.406Z,1.20
2022-11-27T05:00:46.543Z,0.85
2022-11-27T05:03:13.819Z,0.95
2022-11-27T05:05:40.827Z,0.95
2022-11-27T05:08:07.858Z,1.20
2022-11-27T05:10:34.834Z,0.90
2022-11-27T05:13:01.815Z,1.10
2022-11-27T05:15:28.913Z,1.10
2022-11-27T05:17:55.888Z,1.23
2022-11-27T05:20:22.945Z,1.00
2022-11-27T05:22:50.830Z,1.10
2022-11-27T05:25:17.881Z,1.08
2022-11-27T05:27:44.862Z,1.13
2022-11-27T05:30:12.116Z,1.00
2022-11-27T05:32:39.137Z,1.00
2022-11-27T05:35:06.564Z,1.30
2022-11-27T05:37:33.507Z,1.20
2022-11-27T05:40:00.571Z,1.10
2022-11-27T05:42:27.651Z,1.35
2022-11-27T05:44:58.245Z,0.98
2022-11-27T05:47:25.783Z,0.90
2022-11-27T05:49:52.911Z,1.40
2022-11-27T05:52:19.989Z,1.10
2022-11-27T05:54:46.985Z,1.13
2022-11-27T05:57:13.995Z,1.50
2022-11-27T05:59:40.969Z,1.08
2022-11-27T06:02:08.104Z,1.30
2022-11-27T06:04:35.152Z,0.90
2022-11-27T06:07:02.125Z,1.40
2022-11-27T06:09:29.134Z,1.38
2022-11-27T06:11:56.583Z,1.35
2022-11-27T06:14:23.731Z,1.08
2022-11-27T06:16:50.837Z,1.40
2022-11-27T06:19:17.940Z,1.20
2022-11-27T06:21:46.548Z,1.63
2022-11-27T06:24:13.684Z,1.50
2022-11-27T06:26:40.750Z,1.38
2022-11-27T06:29:07.899Z,1.05
2022-11-27T06:31:35.344Z,1.30
2022-11-27T06:34:02.878Z,1.55
2022-11-27T06:36:38.190Z,1.27
2022-11-27T06:39:06.746Z,1.58
2022-11-27T06:41:34.156Z,1.55
2022-11-27T06:44:01.653Z,1.23
2022-11-27T06:46:29.927Z,1.70
2022-11-27T06:48:57.843Z,1.95
2022-11-27T06:51:27.959Z,1.48
2022-11-27T06:53:55.232Z,1.50
2022-11-27T06:56:24.762Z,1.60
2022-11-27T06:58:57.198Z,1.40
2022-11-27T07:01:26.519Z,1.65
2022-11-27T07:03:53.947Z,1.92
2022-11-27T07:06:23.107Z,2.88
2022-11-27T07:08:50.491Z,2.17
2022-11-27T07:11:21.112Z,2.33
2022-11-27T07:13:49.431Z,2.20
2022-11-27T07:16:18.442Z,1.90
2022-11-27T07:18:48.298Z,1.77
2022-11-27T07:21:15.616Z,2.10
2022-11-27T07:23:42.966Z,2.10
2022-11-27T07:26:16.061Z,1.83
2022-11-27T07:28:44.040Z,2.10
2022-11-27T07:31:12.983Z,2.20
2022-11-27T07:33:40.253Z,1.83
2022-11-27T07:36:19.548Z,2.22
2022-11-27T07:38:47.415Z,2.08
2022-11-27T07:41:14.974Z,2.15
2022-11-27T07:43:43.049Z,2.08
2022-11-27T07:46:19.440Z,1.88
2022-11-27T07:48:46.743Z,2.22
2022-11-27T07:51:15.710Z,2.20
2022-11-27T07:53:42.989Z,3.13
2022-11-27T07:56:12.956Z,2.53
2022-11-27T07:58:40.452Z,2.00
2022-11-27T08:01:15.371Z,2.10
2022-11-27T08:03:46.274Z,2.28
2022-11-27T08:06:24.940Z,2.30
2022-11-27T08:08:52.597Z,2.17
2022-11-27T08:11:24.389Z,2.20
2022-11-27T08:14:03.073Z,1.90
2022-11-27T08:16:31.292Z,1.85
2022-11-27T08:18:58.798Z,2.30
2022-11-27T08:21:27.113Z,2.90
2022-11-27T08:23:54.121Z,2.40
2022-11-27T08:26:21.335Z,2.22
2022-11-27T08:28:48.322Z,2.55
2022-11-27T08:31:16.176Z,2.42
2022-11-27T08:33:43.207Z,2.70
2022-11-27T08:36:16.260Z,2.40
2022-11-27T08:38:44.834Z,3.05
2022-11-27T08:41:11.940Z,3.28
2022-11-27T08:43:38.898Z,2.50
2022-11-27T08:46:07.417Z,3.00
2022-11-27T08:48:34.844Z,3.30
2022-11-27T08:51:07.190Z,2.60
2022-11-27T09:30:35.084Z,4.60
2022-11-27T12:17:43.783Z,4.25
2022-11-27T12:20:38.706Z,3.85
2022-11-27T12:23:05.871Z,4.30
2022-11-27T12:30:54.342Z,4.40
2022-11-27T12:33:28.810Z,3.95
2022-11-27T12:36:07.747Z,4.55
2022-11-27T12:38:48.135Z,3.90
2022-11-27T12:41:43.000Z,4.18
2022-11-27T12:44:34.315Z,4.15
2022-11-27T12:47:11.412Z,3.97
2022-11-27T12:49:46.581Z,3.78
2022-11-27T12:52:28.522Z,4.25
2022-11-27T12:55:15.508Z,4.30
2022-11-27T12:58:09.698Z,3.55
2022-11-27T13:00:44.181Z,3.80
2022-11-27T13:03:25.282Z,4.50
2022-11-27T13:05:58.170Z,3.90
2022-11-27T13:08:30.762Z,4.40
2022-11-27T13:11:04.999Z,4.28
2022-11-27T13:13:37.477Z,4.47
2022-11-27T13:16:15.599Z,4.03
2022-11-27T13:18:50.585Z,4.60
2022-11-27T13:21:28.502Z,3.85
2022-11-27T13:23:56.275Z,3.85
2022-11-27T13:26:40.449Z,3.83
2022-11-27T13:31:57.418Z,3.33
2022-11-27T13:34:28.595Z,3.78
2022-11-27T13:37:03.091Z,3.70
2022-11-27T14:25:36.414Z,4.90
2022-11-27T14:28:26.026Z,4.82
2022-11-27T14:31:01.597Z,4.45
2022-11-27T14:33:59.643Z,3.95
2022-11-27T14:36:23.489Z,4.65
2022-11-27T14:38:50.559Z,3.90
2022-11-27T14:41:20.680Z,3.72
2022-11-27T14:43:48.100Z,3.72
2022-11-27T14:46:19.288Z,4.45
2022-11-27T14:48:57.034Z,4.40
2022-11-27T14:51:26.956Z,4.15
2022-11-27T14:54:03.320Z,3.78
2022-11-27T14:56:40.670Z,3.83
2022-11-27T14:59:16.005Z,3.70
2022-11-27T15:01:43.216Z,3.58
2022-11-27T15:04:34.701Z,4.03
2022-11-27T15:07:05.706Z,3.70
2022-11-27T15:09:35.773Z,5.70
2022-11-27T15:14:54.424Z,7.45
2022-11-27T15:17:27.196Z,5.38
2022-11-27T15:19:56.145Z,7.50
2022-11-27T15:22:23.536Z,7.40
2022-11-27T15:25:07.866Z,6.80
2022-11-27T15:27:47.589Z,7.80
2022-11-27T15:30:18.373Z,5.72
2022-11-27T15:32:53.440Z,5.65
2022-11-27T15:43:00.690Z,5.50
2022-11-27T15:45:30.449Z,5.80
2022-11-27T15:48:00.065Z,5.50
2022-11-27T15:50:27.947Z,5.50
2022-11-27T15:55:22.405Z,8.25
2022-11-27T15:57:49.598Z,7.80
2022-11-27T16:00:17.107Z,8.48
2022-11-27T16:02:44.211Z,9.65
2022-11-27T16:05:11.328Z,9.05
2022-11-27T16:07:38.622Z,8.70
2022-11-27T16:10:06.518Z,8.82
2022-11-27T16:12:33.955Z,9.65
2022-11-27T16:15:00.911Z,8.93
2022-11-27T16:17:27.948Z,8.02
2022-11-27T16:19:54.996Z,8.88
2022-11-27T16:22:22.121Z,8.93
2022-11-27T16:24:49.402Z,9.52
2022-11-27T16:27:16.544Z,11.88
2022-11-27T16:29:44.235Z,11.85
2022-11-27T16:32:11.402Z,14.93
2022-11-27T16:34:38.742Z,11.40
2022-11-27T16:37:07.016Z,9.70
2022-11-27T16:39:34.042Z,10.40
2022-11-27T16:42:02.524Z,8.80
2022-11-27T16:44:29.690Z,8.43
2022-11-27T16:46:56.660Z,7.50
2022-11-27T16:49:24.203Z,8.13
2022-11-27T16:51:51.781Z,8.18
2022-11-27T16:54:19.419Z,6.97
2022-11-27T16:56:46.699Z,7.65
2022-11-27T16:59:15.579Z,6.63
2022-11-27T17:01:44.065Z,7.70
2022-11-27T17:04:19.166Z,8.15
2022-11-27T17:06:49.155Z,7.15
2022-11-27T17:09:16.677Z,7.18
2022-11-27T17:11:48.721Z,7.13
2022-11-27T17:14:17.097Z,7.43
2022-11-27T17:16:45.063Z,7.60
2022-11-27T17:19:15.063Z,7.63
2022-11-27T17:21:43.667Z,7.97
2022-11-27T17:24:15.271Z,8.15
2022-11-27T17:26:45.592Z,7.68
2022-11-27T17:29:14.365Z,8.23
2022-11-27T17:31:42.012Z,8.80
2022-11-27T17:34:13.158Z,8.05
2022-11-27T17:36:43.148Z,7.57
2022-11-27T17:39:13.140Z,8.05
2022-11-27T17:41:40.998Z,7.60
2022-11-27T17:44:08.638Z,7.22
2022-11-27T17:46:36.995Z,7.20
2022-11-27T17:49:07.141Z,7.72
2022-11-27T17:51:35.990Z,7.85
2022-11-27T17:54:04.522Z,7.43
2022-11-27T17:56:33.543Z,8.55
2022-11-27T17:59:01.165Z,7.97
2022-11-27T18:01:30.725Z,7.90
2022-11-27T18:04:01.263Z,7.80
2022-11-27T18:06:31.187Z,8.73
2022-11-27T18:08:58.914Z,8.30
2022-11-27T18:11:28.682Z,8.50
2022-11-27T18:13:58.896Z,8.20
2022-11-27T18:16:32.597Z,7.60
2022-11-27T18:19:02.846Z,8.32
2022-11-27T18:21:31.063Z,7.63
2022-11-27T18:24:22.624Z,7.80
2022-11-27T18:29:35.319Z,7.80
2022-11-27T18:32:02.433Z,8.23
2022-11-27T18:34:29.533Z,8.02
2022-11-27T18:36:59.516Z,8.43
2022-11-27T18:39:27.485Z,8.63
2022-11-27T18:41:54.483Z,7.90
2022-11-27T18:44:21.578Z,8.18
2022-11-27T18:46:48.655Z,7.68
2022-11-27T18:49:16.058Z,7.93
2022-11-27T18:51:43.255Z,8.32
2022-11-27T18:54:10.476Z,6.82
2022-11-27T18:56:38.264Z,8.15
2022-11-27T18:59:07.280Z,7.97
2022-11-27T19:01:41.216Z,7.53
2022-11-27T19:04:10.511Z,7.63
2022-11-27T19:06:38.670Z,8.15
2022-11-27T19:09:06.646Z,8.45
2022-11-27T19:11:35.212Z,7.57
2022-11-27T19:14:04.294Z,7.80
2022-11-27T19:16:34.129Z,7.72
2022-11-27T19:19:03.018Z,8.20
2022-11-27T19:21:33.241Z,7.90
2022-11-27T19:24:02.629Z,7.32
2022-11-27T19:26:32.196Z,7.05
2022-11-27T19:29:02.585Z,7.70
2022-11-27T19:31:32.107Z,8.15
2022-11-27T19:34:01.924Z,7.50
2022-11-27T19:36:31.716Z,8.50
2022-11-27T19:39:06.104Z,7.82
2022-11-27T19:41:33.878Z,8.05
2022-11-27T19:44:03.593Z,8.48
2022-11-27T19:46:33.041Z,8.73
2022-11-27T19:49:03.645Z,8.23
2022-11-27T19:51:41.107Z,8.40
2022-11-27T19:54:13.120Z,9.10
2022-11-27T19:56:42.602Z,8.40
2022-11-27T19:59:10.603Z,7.68
2022-11-27T20:01:40.325Z,6.88
2022-11-27T20:04:10.160Z,7.68
2022-11-27T20:06:37.436Z,7.15
2022-11-27T20:09:05.844Z,7.60
2022-11-27T20:11:35.444Z,7.32
2022-11-27T20:14:05.369Z,8.10
2022-11-27T20:16:34.384Z,7.88
2022-11-27T20:19:05.345Z,7.93
2022-11-27T20:21:34.094Z,7.25
2022-11-27T20:24:02.614Z,8.20
2022-11-27T20:26:30.666Z,7.07
2022-11-27T20:28:59.825Z,7.47
2022-11-27T20:31:36.444Z,7.30
2022-11-27T20:34:05.839Z,7.35
2022-11-27T20:36:39.973Z,7.78
2022-11-27T20:39:19.211Z,7.88
2022-11-27T20:41:54.690Z,7.18
2022-11-27T20:44:24.548Z,6.57
2022-11-27T20:46:53.041Z,6.93
2022-11-27T20:49:20.649Z,6.78
2022-11-27T20:51:51.114Z,7.00
2022-11-27T20:54:23.468Z,6.47
2022-11-27T20:56:54.504Z,7.13
2022-11-27T20:59:25.698Z,5.85
2022-11-27T21:01:55.813Z,6.20
2022-11-27T21:04:27.731Z,7.10
2022-11-27T21:06:56.594Z,6.05
2022-11-27T21:09:24.939Z,5.63
2022-11-27T21:11:51.949Z,6.40
2022-11-27T21:14:19.078Z,6.47
2022-11-27T21:16:50.081Z,7.03
2022-11-27T21:19:28.333Z,6.70
2022-11-27T21:21:57.229Z,6.00
2022-11-27T21:24:27.482Z,7.13
2022-11-27T21:26:58.576Z,6.13
2022-11-27T21:29:29.451Z,6.03
2022-11-27T21:31:58.406Z,6.25
2022-11-27T21:34:25.835Z,6.40
2022-11-27T21:36:52.946Z,6.65
2022-11-27T21:39:20.994Z,6.70
2022-11-27T21:41:51.041Z,6.13
2022-11-27T21:44:19.888Z,6.32
2022-11-27T21:46:55.995Z,6.68
2022-11-27T21:49:30.829Z,6.82
2022-11-27T21:51:59.594Z,6.22
2022-11-27T21:54:31.836Z,6.18
2022-11-27T21:56:58.955Z,7.68
2022-11-27T21:59:26.157Z,6.70
2022-11-27T22:01:53.423Z,6.35
2022-11-27T22:04:21.414Z,6.72
2022-11-27T22:06:48.452Z,6.03
2022-11-27T22:09:19.653Z,5.63
2022-11-27T22:11:49.607Z,5.90
2022-11-27T22:14:19.642Z,5.72
2022-11-27T22:16:47.359Z,6.10
2022-11-27T22:19:16.298Z,5.68
2022-11-27T22:21:46.077Z,6.63
2022-11-27T22:24:18.823Z,5.53
2022-11-27T22:26:54.124Z,5.25
2022-11-27T22:29:21.093Z,5.43
2022-11-27T22:31:48.307Z,5.10
2022-11-27T22:34:16.401Z,5.38
2022-11-27T22:36:51.989Z,5.30
2022-11-27T22:39:19.021Z,5.07
2022-11-27T22:41:46.442Z,5.80
2022-11-27T22:44:19.471Z,6.35
2022-11-27T22:46:47.137Z,4.90
2022-11-27T22:49:16.077Z,5.18
2022-11-27T22:51:47.403Z,5.00
2022-11-27T22:54:17.200Z,4.93
2022-11-27T22:56:45.894Z,6.30
2022-11-27T23:02:02.635Z,5.00
2022-11-27T23:04:30.019Z,5.30
2022-11-27T23:07:00.870Z,4.63
2022-11-27T23:09:28.925Z,5.25
2022-11-27T23:11:57.093Z,5.20
2022-11-27T23:14:30.008Z,4.68
2022-11-27T23:16:57.355Z,5.22
2022-11-27T23:19:24.431Z,4.75
2022-11-27T23:21:57.691Z,4.78
2022-11-27T23:24:25.033Z,4.85
2022-11-27T23:26:53.324Z,4.75
2022-11-27T23:29:20.968Z,4.72
2022-11-27T23:31:48.612Z,4.90
2022-11-27T23:34:16.329Z,4.38
2022-11-27T23:36:43.379Z,4.95
2022-11-27T23:39:13.361Z,4.25
2022-11-27T23:41:40.744Z,5.00
2022-11-27T23:44:08.303Z,4.75
2022-11-27T23:46:35.405Z,4.40
2022-11-27T23:49:05.347Z,5.10
2022-11-27T23:51:33.083Z,4.60
2022-11-27T23:54:01.299Z,4.97
2022-11-27T23:56:30.810Z,4.93
2022-11-27T23:59:02.221Z,4.82
